createdAt,value
2022-11-30T00:01:39.918Z,97.87
2022-11-30T00:04:09.564Z,91.43
2022-11-30T00:06:37.919Z,103.17
2022-11-30T00:09:07.346Z,88.93
2022-11-30T00:11:35.792Z,92.73
2022-11-30T00:14:04.831Z,96.00
2022-11-30T00:16:35.816Z,99.17
2022-11-30T00:19:04.371Z,93.23
2022-11-30T00:21:32.945Z,95.87
2022-11-30T00:24:01.421Z,93.60
2022-11-30T00:26:29.781Z,92.67
2022-11-30T00:28:58.310Z,99.40
2022-11-30T00:31:26.647Z,89.47
2022-11-30T00:33:56.488Z,89.53
2022-11-30T00:36:24.873Z,92.27
2022-11-30T00:38:53.635Z,92.27
2022-11-30T00:41:22.499Z,100.47
2022-11-30T00:43:50.988Z,94.37
2022-11-30T00:46:19.359Z,97.43
2022-11-30T00:48:48.379Z,94.80
2022-11-30T00:51:18.540Z,96.83
2022-11-30T00:53:48.262Z,93.87
2022-11-30T00:56:16.854Z,95.67
2022-11-30T00:58:45.167Z,90.97
2022-11-30T01:01:14.645Z,93.57
2022-11-30T01:03:43.005Z,94.63
2022-11-30T01:06:11.719Z,92.97
2022-11-30T01:08:41.382Z,94.27
2022-11-30T01:11:15.958Z,87.77
2022-11-30T01:13:44.449Z,90.33
2022-11-30T01:16:15.966Z,94.20
2022-11-30T01:18:45.203Z,95.10
2022-11-30T01:21:19.092Z,94.47
2022-11-30T01:23:50.109Z,104.60
2022-11-30T01:26:19.635Z,77.73
2022-11-30T01:28:52.548Z,95.90
2022-11-30T01:31:23.469Z,94.80
2022-11-30T01:33:53.218Z,97.20
2022-11-30T01:36:23.781Z,96.37
2022-11-30T01:38:55.653Z,92.30
2022-11-30T01:41:27.337Z,95.70
2022-11-30T01:43:58.553Z,100.23
2022-11-30T01:46:37.549Z,99.07
2022-11-30T01:49:19.616Z,105.43
2022-11-30T01:51:52.703Z,91.77
2022-11-30T01:54:30.571Z,98.80
2022-11-30T01:57:07.543Z,99.07
2022-11-30T01:59:36.240Z,106.63
2022-11-30T02:02:06.090Z,98.87
2022-11-30T02:04:39.201Z,99.27
2022-11-30T02:07:10.017Z,98.73
2022-11-30T02:09:46.759Z,103.50
2022-11-30T02:12:26.554Z,99.60
2022-11-30T02:15:02.962Z,99.93
2022-11-30T02:17:49.271Z,105.70
2022-11-30T02:20:49.004Z,97.13
2022-11-30T02:23:46.142Z,103.80
2022-11-30T02:26:37.332Z,103.97
2022-11-30T02:29:20.806Z,89.47
2022-11-30T02:31:58.488Z,99.17
2022-11-30T02:34:33.343Z,102.53
2022-11-30T02:37:04.306Z,102.90
2022-11-30T02:39:32.821Z,101.97
2022-11-30T02:42:01.280Z,96.27
2022-11-30T02:44:31.399Z,99.23
2022-11-30T02:47:19.150Z,101.67
2022-11-30T02:49:55.537Z,102.67
2022-11-30T02:52:29.126Z,96.93
2022-11-30T02:55:02.038Z,97.60
2022-11-30T02:57:30.855Z,95.07
2022-11-30T03:00:02.971Z,104.17
2022-11-30T03:02:31.784Z,104.47
2022-11-30T03:05:00.262Z,96.30
2022-11-30T03:07:28.638Z,97.37
2022-11-30T03:09:56.996Z,95.47
2022-11-30T03:12:25.376Z,93.20
2022-11-30T03:14:54.459Z,100.07
2022-11-30T03:17:24.231Z,100.27
2022-11-30T03:19:52.635Z,105.50
2022-11-30T03:22:21.599Z,101.57
2022-11-30T03:24:50.223Z,93.97
2022-11-30T03:27:18.910Z,114.93
2022-11-30T03:29:47.394Z,101.33
2022-11-30T03:32:15.747Z,106.77
2022-11-30T03:34:45.802Z,94.53
2022-11-30T03:37:14.557Z,107.07
2022-11-30T03:39:42.908Z,101.57
2022-11-30T03:42:11.281Z,117.87
2022-11-30T03:44:39.703Z,106.97
2022-11-30T03:47:08.167Z,104.43
2022-11-30T03:49:36.509Z,109.73
2022-11-30T03:52:06.675Z,102.53
2022-11-30T03:54:35.037Z,107.77
2022-11-30T03:57:03.468Z,114.20
2022-11-30T03:59:32.223Z,109.13
2022-11-30T04:02:00.602Z,109.50
2022-11-30T04:04:29.025Z,107.80
2022-11-30T04:06:57.442Z,120.37
2022-11-30T04:09:27.238Z,117.03
2022-11-30T04:11:55.690Z,116.47
2022-11-30T04:14:24.119Z,122.27
2022-11-30T04:16:52.532Z,104.80
2022-11-30T04:19:20.862Z,119.77
2022-11-30T04:21:49.430Z,111.10
2022-11-30T04:24:18.085Z,111.97
2022-11-30T04:26:47.755Z,115.80
2022-11-30T04:29:16.112Z,111.47
2022-11-30T04:31:44.483Z,114.03
2022-11-30T04:34:13.116Z,117.30
2022-11-30T04:36:41.575Z,122.03
2022-11-30T04:39:09.891Z,119.97
2022-11-30T04:41:38.331Z,111.80
2022-11-30T04:44:08.462Z,113.07
2022-11-30T04:46:37.769Z,123.73
2022-11-30T04:49:06.323Z,121.27
2022-11-30T04:51:34.683Z,122.93
2022-11-30T04:54:03.100Z,117.43
2022-11-30T04:56:31.482Z,119.63
2022-11-30T04:58:59.760Z,117.47
2022-11-30T05:01:29.702Z,123.37
2022-11-30T05:04:00.105Z,133.33
2022-11-30T05:06:28.768Z,117.60
2022-11-30T05:08:57.071Z,125.20
2022-11-30T05:11:25.535Z,123.97
2022-11-30T05:13:53.861Z,121.47
2022-11-30T05:16:22.297Z,121.07
2022-11-30T05:18:52.023Z,135.67
2022-11-30T05:21:20.297Z,122.63
2022-11-30T05:23:48.779Z,132.60
2022-11-30T05:26:17.546Z,126.67
2022-11-30T05:28:45.769Z,122.93
2022-11-30T05:31:14.085Z,132.63
2022-11-30T05:33:42.449Z,124.90
2022-11-30T05:36:12.247Z,126.60
2022-11-30T05:38:40.541Z,123.67
2022-11-30T05:41:08.903Z,130.73
2022-11-30T05:43:37.376Z,132.53
2022-11-30T05:46:09.854Z,133.43
2022-11-30T05:48:38.649Z,133.13
2022-11-30T05:51:08.749Z,139.57
2022-11-30T05:53:39.220Z,138.27
2022-11-30T05:56:11.183Z,129.07
2022-11-30T05:58:40.065Z,130.03
2022-11-30T06:01:09.405Z,130.73
2022-11-30T06:03:37.773Z,127.33
2022-11-30T06:06:06.586Z,130.37
2022-11-30T06:08:34.964Z,129.03
2022-11-30T06:11:04.620Z,125.77
2022-11-30T06:13:32.977Z,140.63
2022-11-30T06:16:01.661Z,130.40
2022-11-30T06:18:31.030Z,128.33
2022-11-30T06:21:02.469Z,126.47
2022-11-30T06:23:30.932Z,131.47
2022-11-30T06:25:59.378Z,130.17
2022-11-30T06:28:29.139Z,132.10
2022-11-30T06:31:00.221Z,123.43
2022-11-30T06:33:28.876Z,124.20
2022-11-30T06:35:57.731Z,121.23
2022-11-30T06:38:26.824Z,123.27
2022-11-30T06:40:55.346Z,116.00
2022-11-30T06:43:23.699Z,119.80
2022-11-30T06:45:53.437Z,117.10
2022-11-30T06:48:22.991Z,127.83
2022-11-30T06:50:51.348Z,124.40
2022-11-30T06:53:19.715Z,130.07
2022-11-30T06:55:48.045Z,125.33
2022-11-30T06:58:16.327Z,131.57
2022-11-30T07:00:44.799Z,114.90
2022-11-30T07:03:16.163Z,123.20
2022-11-30T07:05:47.403Z,124.53
2022-11-30T07:08:17.886Z,126.37
2022-11-30T07:10:48.155Z,123.60
2022-11-30T07:13:19.365Z,124.67
2022-11-30T07:15:47.767Z,118.67
2022-11-30T07:18:17.447Z,118.30
2022-11-30T07:20:45.704Z,122.00
2022-11-30T07:23:31.777Z,124.50
2022-11-30T07:26:09.447Z,122.30
2022-11-30T07:28:40.919Z,121.43
2022-11-30T07:31:18.864Z,112.67
2022-11-30T07:33:49.175Z,116.47
2022-11-30T07:36:19.239Z,119.23
2022-11-30T07:38:48.449Z,114.47
2022-11-30T07:41:17.230Z,112.83
2022-11-30T07:43:45.704Z,113.50
2022-11-30T07:46:16.220Z,108.93
2022-11-30T07:48:45.801Z,119.30
2022-11-30T07:51:18.136Z,116.67
2022-11-30T07:53:47.264Z,112.30
2022-11-30T07:56:18.644Z,118.27
2022-11-30T07:58:47.766Z,120.47
2022-11-30T08:01:21.384Z,117.13
2022-11-30T08:03:51.085Z,100.73
2022-11-30T08:06:23.099Z,110.97
2022-11-30T08:08:53.902Z,96.90
2022-11-30T08:11:26.273Z,99.03
2022-11-30T08:13:55.321Z,104.43
2022-11-30T08:16:27.985Z,107.40
2022-11-30T08:18:58.070Z,93.67
2022-11-30T08:21:28.184Z,92.03
2022-11-30T08:23:57.919Z,97.83
2022-11-30T08:26:28.900Z,106.77
2022-11-30T08:28:59.620Z,94.60
2022-11-30T08:31:31.303Z,96.00
2022-11-30T08:34:04.847Z,102.23
2022-11-30T08:36:35.318Z,98.27
2022-11-30T08:39:06.062Z,97.83
2022-11-30T08:41:36.097Z,97.07
2022-11-30T08:44:04.774Z,95.77
2022-11-30T08:49:24.441Z,87.90
2022-11-30T08:54:47.460Z,96.10
2022-11-30T08:57:17.338Z,92.50
2022-11-30T08:59:46.186Z,96.93
2022-11-30T09:02:18.224Z,83.77
2022-11-30T09:05:09.396Z,90.27
2022-11-30T09:07:38.464Z,87.83
2022-11-30T09:10:08.703Z,86.90
2022-11-30T09:12:38.634Z,79.07
2022-11-30T09:15:09.587Z,79.07
2022-11-30T09:17:38.265Z,85.17
2022-11-30T09:20:08.864Z,76.47
2022-11-30T09:22:38.603Z,75.87
2022-11-30T09:25:08.005Z,74.13
2022-11-30T09:27:36.308Z,76.93
2022-11-30T09:30:07.043Z,76.37
2022-11-30T09:32:35.389Z,72.80
2022-11-30T09:35:03.698Z,70.00
2022-11-30T09:37:31.976Z,67.57
2022-11-30T09:40:01.654Z,64.87
2022-11-30T09:42:54.915Z,67.93
2022-11-30T09:45:30.853Z,66.23
2022-11-30T09:48:27.383Z,60.00
2022-11-30T09:51:01.040Z,64.53
2022-11-30T09:53:42.280Z,56.33
2022-11-30T09:56:24.519Z,60.90
2022-11-30T09:58:57.837Z,57.13
2022-11-30T10:01:30.510Z,57.07
2022-11-30T10:04:01.608Z,60.63
2022-11-30T10:06:47.209Z,56.77
2022-11-30T10:09:35.043Z,62.93
2022-11-30T10:12:12.661Z,58.83
2022-11-30T10:15:21.088Z,58.20
2022-11-30T10:17:57.852Z,60.87
2022-11-30T10:20:55.948Z,56.07
2022-11-30T10:23:57.106Z,55.00
2022-11-30T10:26:35.139Z,57.53
2022-11-30T10:29:17.611Z,57.67
2022-11-30T10:31:49.585Z,60.47
2022-11-30T10:34:22.976Z,56.47
2022-11-30T10:37:01.683Z,54.83
2022-11-30T10:39:36.473Z,57.30
2022-11-30T10:42:13.873Z,56.50
2022-11-30T10:45:00.224Z,57.07
2022-11-30T10:47:36.831Z,59.40
2022-11-30T10:50:06.551Z,58.30
2022-11-30T10:52:46.193Z,54.13
2022-11-30T10:55:20.409Z,61.63
2022-11-30T10:57:52.294Z,55.50
2022-11-30T11:00:23.452Z,62.10
2022-11-30T11:02:53.974Z,56.37
2022-11-30T11:05:26.210Z,53.20
2022-11-30T11:08:06.319Z,60.40
2022-11-30T11:10:43.777Z,54.97
2022-11-30T11:13:19.602Z,56.13
2022-11-30T11:16:00.638Z,59.80
2022-11-30T11:18:31.342Z,55.43
2022-11-30T11:21:08.866Z,59.47
2022-11-30T11:23:40.024Z,58.20
2022-11-30T11:26:19.049Z,57.53
2022-11-30T11:28:51.293Z,54.37
2022-11-30T11:31:36.420Z,53.27
2022-11-30T11:34:08.726Z,60.03
2022-11-30T11:36:37.012Z,54.87
2022-11-30T11:39:26.641Z,59.13
2022-11-30T11:41:55.542Z,53.93
2022-11-30T11:44:27.953Z,57.47
2022-11-30T11:47:00.858Z,62.83
2022-11-30T11:49:32.789Z,59.50
2022-11-30T11:52:04.324Z,58.53
2022-11-30T11:54:40.193Z,54.33
2022-11-30T11:57:12.778Z,60.13
2022-11-30T11:59:50.718Z,55.37
2022-11-30T12:02:33.122Z,55.83
2022-11-30T12:05:08.804Z,60.67
2022-11-30T12:07:45.153Z,63.17
2022-11-30T12:13:22.938Z,52.83
2022-11-30T12:16:10.293Z,55.40
2022-11-30T12:18:52.888Z,54.77
2022-11-30T12:21:43.543Z,52.90
2022-11-30T12:24:35.366Z,52.03
2022-11-30T12:27:21.297Z,54.57
2022-11-30T12:30:06.153Z,51.67
2022-11-30T12:33:01.861Z,45.33
2022-11-30T12:35:44.913Z,52.33
2022-11-30T12:38:27.997Z,47.60
2022-11-30T12:41:08.650Z,46.53
2022-11-30T12:43:49.873Z,48.73
2022-11-30T12:46:30.801Z,47.73
2022-11-30T12:49:21.067Z,51.63
2022-11-30T12:52:04.279Z,53.87
2022-11-30T12:54:41.589Z,50.03
2022-11-30T12:57:20.222Z,54.57
2022-11-30T13:00:02.773Z,53.17
2022-11-30T13:02:58.220Z,52.33
2022-11-30T13:05:34.916Z,55.90
2022-11-30T13:08:20.025Z,60.93
2022-11-30T13:10:56.010Z,53.70
2022-11-30T13:13:31.227Z,50.53
2022-11-30T13:16:04.751Z,60.17
2022-11-30T13:18:34.667Z,51.57
2022-11-30T13:21:10.499Z,55.43
2022-11-30T13:23:48.858Z,51.40
2022-11-30T13:26:29.918Z,55.37
2022-11-30T13:29:24.157Z,46.87
2022-11-30T13:32:04.329Z,66.70
2022-11-30T13:34:34.344Z,55.23
2022-11-30T13:37:07.072Z,59.50
2022-11-30T13:39:50.087Z,55.07
2022-11-30T13:42:46.065Z,59.83
2022-11-30T13:45:36.369Z,58.10
2022-11-30T13:48:30.039Z,60.20
2022-11-30T13:50:58.668Z,63.43
2022-11-30T13:53:30.557Z,67.40
2022-11-30T13:56:07.758Z,64.77
2022-11-30T13:58:36.885Z,59.33
2022-11-30T14:01:27.896Z,65.07
2022-11-30T14:04:35.387Z,69.50
2022-11-30T14:07:09.340Z,67.17
2022-11-30T14:10:28.921Z,70.70
2022-11-30T14:13:03.220Z,80.20
2022-11-30T14:15:59.803Z,68.87
2022-11-30T14:18:45.441Z,77.00
2022-11-30T14:21:27.297Z,81.23
2022-11-30T14:24:01.997Z,79.20
2022-11-30T14:26:37.385Z,75.33
2022-11-30T14:29:18.714Z,86.33
2022-11-30T14:31:58.346Z,76.30
2022-11-30T14:34:32.428Z,81.40
2022-11-30T14:37:06.612Z,87.20
2022-11-30T14:39:38.311Z,82.27
2022-11-30T14:42:07.584Z,77.43
2022-11-30T14:44:41.678Z,77.80
2022-11-30T14:47:22.291Z,75.37
2022-11-30T14:49:53.885Z,69.07
2022-11-30T14:52:47.130Z,79.67
2022-11-30T14:55:30.152Z,80.70
2022-11-30T14:58:13.243Z,88.43
2022-11-30T15:00:45.934Z,82.87
2022-11-30T15:03:25.916Z,89.53
2022-11-30T15:05:57.977Z,85.53
2022-11-30T15:08:40.710Z,81.47
2022-11-30T15:11:14.728Z,90.00
2022-11-30T15:13:47.484Z,96.53
2022-11-30T15:16:27.469Z,89.37
2022-11-30T15:18:59.286Z,90.63
2022-11-30T15:21:30.503Z,94.43
2022-11-30T15:24:02.034Z,95.97
2022-11-30T15:26:37.883Z,109.27
2022-11-30T15:29:14.061Z,97.57
2022-11-30T15:31:47.397Z,96.40
2022-11-30T15:34:21.666Z,110.30
2022-11-30T15:36:50.084Z,107.33
2022-11-30T15:39:23.204Z,112.00
2022-11-30T15:41:56.496Z,100.47
2022-11-30T15:44:28.396Z,105.17
2022-11-30T15:47:02.437Z,109.47
2022-11-30T15:49:33.139Z,96.63
2022-11-30T15:52:09.029Z,98.87
2022-11-30T15:54:48.592Z,103.33
2022-11-30T15:57:18.040Z,95.33
2022-11-30T16:00:06.031Z,113.57
2022-11-30T16:02:38.207Z,103.80
2022-11-30T16:05:26.856Z,103.43
2022-11-30T16:07:59.878Z,111.20
2022-11-30T16:10:35.639Z,100.43
2022-11-30T16:13:05.296Z,99.80
2022-11-30T16:15:36.215Z,102.20
2022-11-30T16:18:17.750Z,87.63
2022-11-30T16:20:49.226Z,98.90
2022-11-30T16:23:19.185Z,103.77
2022-11-30T16:25:50.203Z,106.67
2022-11-30T16:28:20.526Z,114.67
2022-11-30T16:30:50.438Z,95.40
2022-11-30T16:33:24.476Z,104.83
2022-11-30T16:35:57.438Z,108.63
2022-11-30T16:38:26.947Z,102.20
2022-11-30T16:40:56.336Z,93.73
2022-11-30T16:43:26.089Z,106.30
2022-11-30T16:45:54.668Z,107.43
2022-11-30T16:48:24.461Z,98.13
2022-11-30T16:50:53.323Z,104.73
2022-11-30T16:53:23.848Z,101.43
2022-11-30T16:55:55.746Z,117.57
2022-11-30T16:58:24.310Z,102.97
2022-11-30T17:00:52.852Z,108.50
2022-11-30T17:03:29.488Z,103.67
2022-11-30T17:05:58.056Z,107.27
2022-11-30T17:08:26.511Z,99.80
2022-11-30T17:10:55.820Z,93.67
2022-11-30T17:13:24.260Z,107.67
2022-11-30T17:15:52.679Z,106.70
2022-11-30T17:18:21.051Z,99.50
2022-11-30T17:20:51.017Z,105.13
2022-11-30T17:23:19.498Z,98.83
2022-11-30T17:25:49.247Z,94.37
2022-11-30T17:28:17.810Z,100.43
2022-11-30T17:30:46.420Z,99.83
2022-11-30T17:33:15.063Z,101.77
2022-11-30T17:35:43.671Z,105.83
2022-11-30T17:38:13.399Z,106.47
2022-11-30T17:40:42.577Z,112.40
2022-11-30T17:43:11.036Z,106.73
2022-11-30T17:45:41.272Z,104.17
2022-11-30T17:48:09.762Z,108.73
2022-11-30T17:50:39.790Z,96.93
2022-11-30T17:53:08.313Z,111.87
2022-11-30T17:55:38.174Z,110.67
2022-11-30T17:58:06.552Z,107.27
2022-11-30T18:00:34.781Z,108.03
2022-11-30T18:03:03.223Z,110.17
2022-11-30T18:05:33.499Z,126.07
2022-11-30T18:08:02.186Z,115.53
2022-11-30T18:10:30.680Z,115.80
2022-11-30T18:13:00.502Z,113.90
2022-11-30T18:15:28.903Z,119.83
2022-11-30T18:18:01.307Z,121.70
2022-11-30T18:20:30.107Z,136.50
2022-11-30T18:22:58.684Z,139.97
2022-11-30T18:25:26.969Z,144.03
2022-11-30T18:27:55.506Z,140.60
2022-11-30T18:30:25.319Z,132.90
2022-11-30T18:32:53.804Z,146.77
2022-11-30T18:35:22.396Z,141.77
2022-11-30T18:37:50.735Z,135.87
2022-11-30T18:40:19.270Z,142.03
2022-11-30T18:42:49.539Z,142.33
2022-11-30T18:45:17.956Z,142.93
2022-11-30T18:47:47.772Z,143.30
2022-11-30T18:50:16.213Z,150.87
2022-11-30T18:52:44.709Z,138.90
2022-11-30T18:55:13.152Z,144.47
2022-11-30T18:57:41.512Z,141.37
2022-11-30T19:00:11.714Z,144.57
2022-11-30T19:02:40.211Z,136.77
2022-11-30T19:05:13.355Z,131.83
2022-11-30T19:07:42.102Z,128.13
2022-11-30T19:10:11.204Z,122.20
2022-11-30T19:12:39.585Z,121.83
2022-11-30T19:15:08.928Z,132.27
2022-11-30T19:17:37.382Z,123.33
2022-11-30T19:20:07.351Z,130.77
2022-11-30T19:22:37.145Z,135.03
2022-11-30T19:25:06.763Z,129.57
2022-11-30T19:27:35.845Z,131.50
2022-11-30T19:30:05.796Z,127.60
2022-11-30T19:32:34.497Z,122.03
2022-11-30T19:35:02.844Z,124.73
2022-11-30T19:37:31.756Z,121.67
2022-11-30T19:40:01.523Z,119.57
2022-11-30T19:42:31.796Z,117.03
2022-11-30T19:45:00.270Z,117.77
2022-11-30T19:47:28.664Z,121.67
2022-11-30T19:49:57.718Z,114.20
2022-11-30T19:52:26.204Z,117.17
2022-11-30T19:54:54.763Z,114.80
2022-11-30T19:57:24.468Z,108.80
2022-11-30T19:59:52.839Z,111.10
2022-11-30T20:02:21.195Z,111.80
2022-11-30T20:04:49.878Z,108.70
2022-11-30T20:07:18.560Z,114.67
2022-11-30T20:09:47.089Z,114.07
2022-11-30T20:12:15.414Z,111.43
2022-11-30T20:14:45.776Z,111.90
2022-11-30T20:17:14.348Z,108.93
2022-11-30T20:19:42.769Z,112.17
2022-11-30T20:22:11.176Z,114.00
2022-11-30T20:24:39.610Z,104.93
2022-11-30T20:27:08.044Z,110.63
2022-11-30T20:29:36.771Z,117.13
2022-11-30T20:32:07.330Z,116.30
2022-11-30T20:34:42.381Z,103.90
2022-11-30T20:37:12.155Z,112.00
2022-11-30T20:39:45.838Z,113.97
2022-11-30T20:42:14.678Z,110.17
2022-11-30T20:44:43.043Z,112.97
2022-11-30T20:47:12.794Z,104.97
2022-11-30T20:49:41.176Z,104.90
2022-11-30T20:52:09.525Z,108.47
2022-11-30T20:54:37.872Z,114.43
2022-11-30T20:57:06.465Z,113.57
2022-11-30T20:59:36.230Z,104.07
2022-11-30T21:02:05.259Z,106.00
2022-11-30T21:04:35.104Z,108.80
2022-11-30T21:07:03.431Z,108.27
2022-11-30T21:09:31.741Z,109.60
2022-11-30T21:12:00.232Z,110.67
2022-11-30T21:14:29.801Z,108.30
2022-11-30T21:16:58.344Z,114.30
2022-11-30T21:19:27.100Z,108.43
2022-11-30T21:21:57.804Z,106.43
2022-11-30T21:24:26.207Z,118.83
2022-11-30T21:26:54.760Z,110.47
2022-11-30T21:29:23.114Z,110.53
2022-11-30T21:31:51.530Z,106.13
2022-11-30T21:34:19.973Z,108.47
2022-11-30T21:36:48.847Z,118.00
2022-11-30T21:39:19.776Z,111.67
2022-11-30T21:41:48.517Z,108.97
2022-11-30T21:44:18.099Z,101.87
2022-11-30T21:46:48.052Z,106.33
2022-11-30T21:49:17.794Z,103.70
2022-11-30T21:51:46.200Z,112.40
2022-11-30T21:54:15.272Z,109.27
2022-11-30T21:56:45.937Z,96.53
2022-11-30T21:59:15.889Z,103.87
2022-11-30T22:01:45.916Z,99.87
2022-11-30T22:04:16.062Z,99.63
2022-11-30T22:06:44.680Z,99.90
2022-11-30T22:09:15.546Z,105.03
2022-11-30T22:11:46.917Z,104.27
2022-11-30T22:14:17.858Z,104.00
2022-11-30T22:16:46.841Z,105.50
2022-11-30T22:19:16.153Z,99.53
2022-11-30T22:21:49.801Z,105.63
2022-11-30T22:24:18.797Z,102.20
2022-11-30T22:26:50.144Z,105.93
2022-11-30T22:29:22.147Z,105.60
2022-11-30T22:31:53.572Z,103.97
2022-11-30T22:34:22.628Z,112.00
2022-11-30T22:36:51.043Z,106.37
2022-11-30T22:39:22.072Z,109.03
2022-11-30T22:41:55.671Z,103.00
2022-11-30T22:44:25.604Z,112.77
2022-11-30T22:46:54.061Z,100.23
2022-11-30T22:49:22.431Z,104.97
2022-11-30T22:51:51.811Z,108.93
2022-11-30T22:54:20.495Z,103.57
2022-11-30T22:56:48.756Z,105.63
2022-11-30T22:59:19.024Z,109.90
2022-11-30T23:01:50.201Z,107.87
2022-11-30T23:04:22.685Z,101.00
2022-11-30T23:06:51.641Z,106.47
2022-11-30T23:09:23.764Z,102.30
2022-11-30T23:11:53.129Z,105.70
2022-11-30T23:14:22.810Z,101.27
2022-11-30T23:16:51.143Z,96.03
2022-11-30T23:19:19.466Z,100.80
2022-11-30T23:21:49.925Z,99.77
2022-11-30T23:24:21.385Z,105.47
2022-11-30T23:26:49.969Z,102.53
2022-11-30T23:29:19.195Z,98.93
2022-11-30T23:31:49.349Z,97.07
2022-11-30T23:34:22.145Z,101.27
2022-11-30T23:36:52.420Z,100.57
2022-11-30T23:39:21.516Z,100.07
2022-11-30T23:41:49.974Z,106.13
2022-11-30T23:44:18.519Z,97.23
2022-11-30T23:46:48.612Z,95.47
2022-11-30T23:49:17.126Z,99.53
2022-11-30T23:51:45.357Z,93.93
2022-11-30T23:54:13.663Z,101.87
2022-11-30T23:56:41.975Z,97.57
2022-11-30T23:59:10.297Z,96.77
